Time;durP1;ratioP1;P1;durP2;ratioP2;P2;SDS_P1;SDS_P2;PMS_P1;PMS_P2;Temp;Humidity;BMP_temperature;BMP_pressure;BME280_temperature;BME280_humidity;BME280_pressure;Samples;Min_cycle;Max_cycle;Signal;HPM_P1;HPM_P2
2023/11/29 00:00:17;;;;;;;4.63;3.03;;;23.30;99.90;;;;;;4990865;28;20058;-51
2023/11/29 00:02:43;;;;;;;5.38;3.08;;;23.40;99.90;;;;;;4990505;28;20112;-46
2023/11/29 00:05:10;;;;;;;8.25;3.85;;;23.30;99.90;;;;;;4979915;28;20027;-46
2023/11/29 00:07:36;;;;;;;6.88;2.95;;;23.40;99.90;;;;;;4994010;28;20435;-47
2023/11/29 00:10:03;;;;;;;5.25;3.10;;;23.40;99.90;;;;;;4979029;28;20075;-46
2023/11/29 00:12:29;;;;;;;5.80;3.10;;;23.30;99.90;;;;;;4991626;28;20030;-46
2023/11/29 00:14:55;;;;;;;6.10;3.08;;;23.30;99.90;;;;;;4992278;28;20354;-46
2023/11/29 00:17:21;;;;;;;7.13;3.40;;;23.40;99.90;;;;;;4994402;28;20022;-46
2023/11/29 00:19:47;;;;;;;6.60;3.08;;;23.30;99.90;;;;;;4989819;28;20487;-49
2023/11/29 00:22:13;;;;;;;5.00;3.15;;;23.30;99.90;;;;;;4992023;28;20026;-47
2023/11/29 00:24:46;;;;;;;4.68;2.97;;;23.30;99.90;;;;;;4994262;28;20092;-47
2023/11/29 00:27:13;;;;;;;4.70;2.83;;;23.30;99.90;;;;;;4981795;28;20557;-47
2023/11/29 00:29:39;;;;;;;5.57;2.90;;;23.40;99.90;;;;;;4995437;28;20064;-47
2023/11/29 00:32:05;;;;;;;6.53;3.10;;;23.40;99.90;;;;;;4983412;28;20058;-46
2023/11/29 00:34:30;;;;;;;3.50;1.90;;;23.40;99.90;;;;;;4977311;28;20030;-45
2023/11/29 00:36:58;;;;;;;3.40;2.47;;;23.40;99.90;;;;;;4977569;28;20435;-46
2023/11/29 00:39:24;;;;;;;4.07;2.58;;;23.40;99.90;;;;;;4994857;28;20102;-47
2023/11/29 00:41:49;;;;;;;7.93;2.88;;;23.40;99.90;;;;;;4993805;28;20077;-48
2023/11/29 00:44:15;;;;;;;5.68;2.60;;;23.40;99.90;;;;;;4989202;28;20041;-47
2023/11/29 00:46:41;;;;;;;5.07;2.92;;;23.40;99.90;;;;;;4983711;28;20084;-46
2023/11/29 00:49:07;;;;;;;3.00;2.50;;;23.30;99.90;;;;;;4984587;28;20475;-47
2023/11/29 00:51:33;;;;;;;4.22;2.85;;;23.30;99.90;;;;;;4982046;28;20026;-47
2023/11/29 00:53:59;;;;;;;4.88;2.53;;;23.30;99.90;;;;;;4980853;28;20033;-46
2023/11/29 00:56:25;;;;;;;3.47;2.55;;;23.30;99.90;;;;;;4979572;28;20018;-47
2023/11/29 00:58:51;;;;;;;5.75;2.78;;;23.30;99.90;;;;;;4992434;28;20086;-48
2023/11/29 01:01:17;;;;;;;4.03;2.58;;;23.30;99.90;;;;;;4991616;23;20058;-45
2023/11/29 01:03:42;;;;;;;4.07;2.03;;;23.30;99.90;;;;;;4986597;28;20027;-45
2023/11/29 01:06:08;;;;;;;4.35;2.72;;;23.30;99.90;;;;;;4992341;28;20069;-45
2023/11/29 01:08:34;;;;;;;4.05;2.78;;;23.30;99.90;;;;;;4991972;28;20475;-48
2023/11/29 01:11:00;;;;;;;3.38;2.60;;;23.30;99.90;;;;;;4985463;28;20026;-45
2023/11/29 01:13:28;;;;;;;3.33;2.50;;;23.30;99.90;;;;;;4981066;28;20029;-46
2023/11/29 01:15:54;;;;;;;3.45;2.47;;;23.20;99.90;;;;;;4985963;28;20027;-45
2023/11/29 01:18:20;;;;;;;4.43;2.15;;;23.20;99.90;;;;;;4993432;28;20080;-45
2023/11/29 01:20:47;;;;;;;4.30;2.80;;;23.20;99.90;;;;;;4994108;28;20113;-46
2023/11/29 01:23:12;;;;;;;5.55;2.60;;;23.20;99.90;;;;;;4993963;28;20499;-46
2023/11/29 01:25:39;;;;;;;5.68;2.65;;;23.20;99.90;;;;;;4994278;28;20038;-46
2023/11/29 01:28:08;;;;;;;3.25;2.42;;;23.20;99.90;;;;;;4991657;28;20045;-46
2023/11/29 01:30:34;;;;;;;4.28;2.70;;;23.10;99.90;;;;;;4994085;28;20037;-45
2023/11/29 01:33:00;;;;;;;7.05;2.33;;;23.10;99.90;;;;;;4992804;28;20038;-46
2023/11/29 01:35:25;;;;;;;3.63;2.10;;;23.20;99.90;;;;;;4993986;28;20026;-46
2023/11/29 01:37:51;;;;;;;3.05;2.17;;;23.20;99.90;;;;;;4994371;28;20137;-45
2023/11/29 01:40:17;;;;;;;6.05;3.05;;;23.10;99.90;;;;;;4992965;28;20110;-45
2023/11/29 01:42:43;;;;;;;3.42;1.92;;;23.10;99.90;;;;;;4988721;28;20041;-46
2023/11/29 01:45:09;;;;;;;3.10;2.30;;;23.10;99.90;;;;;;4991298;28;20085;-46
2023/11/29 01:47:37;;;;;;;3.42;2.42;;;23.10;99.90;;;;;;4991351;28;20037;-45
2023/11/29 01:50:07;;;;;;;4.10;2.45;;;23.10;99.90;;;;;;4991625;28;20022;-46
2023/11/29 01:52:35;;;;;;;4.13;2.72;;;23.10;99.90;;;;;;4983641;28;20022;-45
2023/11/29 01:55:02;;;;;;;4.20;2.53;;;23.10;99.90;;;;;;4991234;28;20030;-46
2023/11/29 01:57:28;;;;;;;4.28;2.55;;;23.10;99.90;;;;;;4993149;28;20038;-45
2023/11/29 01:59:54;;;;;;;4.65;2.28;;;23.10;99.90;;;;;;4990705;28;20097;-45
2023/11/29 02:02:20;;;;;;;2.55;1.73;;;23.10;99.90;;;;;;4990013;28;20042;-45
2023/11/29 02:04:46;;;;;;;4.88;2.58;;;23.00;99.90;;;;;;4991860;28;20040;-45
2023/11/29 02:07:13;;;;;;;3.40;2.30;;;23.00;99.90;;;;;;4992528;28;20023;-46
2023/11/29 02:09:40;;;;;;;4.75;2.33;;;23.00;99.90;;;;;;4992261;28;20018;-46
2023/11/29 02:12:07;;;;;;;5.18;2.40;;;23.00;99.90;;;;;;4991677;28;20026;-45
2023/11/29 02:14:40;;;;;;;4.07;2.50;;;23.00;99.90;;;;;;4992504;28;20506;-45
2023/11/29 02:17:07;;;;;;;4.07;2.63;;;23.00;99.90;;;;;;4991740;28;20035;-45
2023/11/29 02:19:33;;;;;;;4.30;2.40;;;23.00;99.90;;;;;;4991752;28;20027;-46
2023/11/29 02:21:59;;;;;;;3.90;2.30;;;23.00;99.90;;;;;;4992802;28;20033;-45
2023/11/29 02:24:32;;;;;;;3.97;2.45;;;23.00;99.90;;;;;;4993044;28;20026;-46
2023/11/29 02:26:58;;;;;;;3.60;2.17;;;23.00;99.90;;;;;;4992104;28;20026;-46
2023/11/29 02:29:25;;;;;;;3.97;2.28;;;22.90;99.90;;;;;;4988396;28;20033;-46
2023/11/29 02:31:50;;;;;;;3.78;2.75;;;22.90;99.90;;;;;;4992181;28;20037;-46
2023/11/29 02:34:16;;;;;;;5.13;2.47;;;22.90;99.90;;;;;;4984966;28;20022;-46
2023/11/29 02:36:42;;;;;;;4.13;2.20;;;22.90;99.90;;;;;;4974494;28;20134;-46
2023/11/29 02:39:09;;;;;;;6.07;2.63;;;22.90;99.90;;;;;;4988913;28;20030;-46
2023/11/29 02:41:38;;;;;;;4.95;2.53;;;22.90;99.90;;;;;;4976609;28;20514;-46
2023/11/29 02:44:06;;;;;;;5.20;2.30;;;22.90;99.90;;;;;;4987437;28;20046;-45
2023/11/29 02:46:32;;;;;;;5.20;2.20;;;22.80;99.90;;;;;;4983626;28;20039;-46
2023/11/29 02:48:58;;;;;;;4.57;2.00;;;22.90;99.90;;;;;;4991256;28;20045;-46
2023/11/29 02:51:24;;;;;;;6.28;2.70;;;22.80;99.90;;;;;;4991890;28;20034;-45
2023/11/29 02:53:51;;;;;;;4.38;2.10;;;22.80;99.90;;;;;;4990906;28;20049;-46
2023/11/29 02:56:17;;;;;;;6.60;2.60;;;22.80;99.90;;;;;;4988732;28;20474;-46
2023/11/29 02:58:43;;;;;;;6.78;2.35;;;22.80;99.90;;;;;;4991939;28;20036;-45
2023/11/29 03:01:09;;;;;;;5.95;2.40;;;22.70;99.90;;;;;;5004202;23;20046;-54
2023/11/29 03:03:35;;;;;;;5.25;2.20;;;22.80;99.90;;;;;;4979645;28;20022;-54
2023/11/29 03:06:00;;;;;;;4.57;2.38;;;22.80;99.90;;;;;;4982610;28;20500;-53
2023/11/29 03:08:28;;;;;;;3.58;2.10;;;22.80;99.90;;;;;;4984711;28;20066;-52
2023/11/29 03:10:54;;;;;;;3.95;2.08;;;22.80;99.90;;;;;;4970299;28;20593;-52
2023/11/29 03:13:20;;;;;;;4.22;2.08;;;22.80;99.90;;;;;;4975684;28;20051;-53
2023/11/29 03:15:45;;;;;;;7.20;2.13;;;22.70;99.90;;;;;;4988601;28;20074;-53
2023/11/29 03:18:11;;;;;;;5.00;2.58;;;22.70;99.90;;;;;;4990893;28;20018;-52
2023/11/29 03:20:37;;;;;;;5.55;2.30;;;22.70;99.90;;;;;;4979372;28;20027;-53
2023/11/29 03:23:03;;;;;;;3.63;2.13;;;22.70;99.90;;;;;;4986328;28;20022;-53
2023/11/29 03:25:29;;;;;;;2.78;2.05;;;22.70;99.90;;;;;;4982581;28;20074;-53
2023/11/29 03:27:54;;;;;;;4.32;2.20;;;22.70;99.90;;;;;;4986654;28;20057;-53
2023/11/29 03:30:20;;;;;;;5.22;2.65;;;22.60;99.90;;;;;;4990957;28;20501;-53
2023/11/29 03:32:46;;;;;;;4.00;2.38;;;22.60;99.90;;;;;;4989489;28;20545;-53
2023/11/29 03:35:12;;;;;;;3.25;2.05;;;22.70;99.90;;;;;;4978668;28;20097;-53
2023/11/29 03:37:38;;;;;;;6.90;2.00;;;22.60;99.90;;;;;;4991095;28;20026;-53
2023/11/29 03:40:04;;;;;;;3.72;2.22;;;22.60;99.90;;;;;;4989345;28;20054;-53
2023/11/29 03:42:30;;;;;;;3.08;1.80;;;22.60;99.90;;;;;;4990560;28;20570;-54
2023/11/29 03:44:55;;;;;;;3.58;1.70;;;22.60;99.90;;;;;;4982830;28;20109;-53
2023/11/29 03:47:21;;;;;;;4.15;2.20;;;22.60;99.90;;;;;;4990172;28;20033;-53
2023/11/29 03:49:47;;;;;;;4.35;1.92;;;22.60;99.90;;;;;;4989410;28;20037;-54
2023/11/29 03:52:13;;;;;;;2.40;1.40;;;22.60;99.90;;;;;;4986321;28;20018;-53
2023/11/29 03:54:39;;;;;;;8.35;2.75;;;22.50;99.90;;;;;;4991560;28;20038;-53
2023/11/29 03:57:05;;;;;;;4.10;1.70;;;22.50;99.90;;;;;;4990515;28;20050;-54
2023/11/29 03:59:31;;;;;;;3.25;1.80;;;22.50;99.90;;;;;;4988160;28;20026;-54
2023/11/29 04:01:57;;;;;;;4.03;1.83;;;22.50;99.90;;;;;;4980826;28;20549;-53
2023/11/29 04:04:23;;;;;;;3.60;1.92;;;22.50;99.90;;;;;;4986433;28;20077;-54
2023/11/29 04:06:49;;;;;;;5.22;1.77;;;22.50;99.90;;;;;;4991252;28;20069;-54
2023/11/29 04:09:14;;;;;;;3.13;1.85;;;22.50;99.90;;;;;;4988515;28;20018;-53
2023/11/29 04:11:40;;;;;;;4.75;1.95;;;22.50;99.90;;;;;;4981955;28;20026;-53
2023/11/29 04:14:06;;;;;;;2.65;1.60;;;22.50;99.90;;;;;;4990433;28;20037;-54
2023/11/29 04:16:33;;;;;;;8.57;1.70;;;22.50;99.90;;;;;;4988930;28;20378;-53
2023/11/29 04:18:59;;;;;;;3.92;1.85;;;22.50;99.90;;;;;;4988135;28;20514;-53
2023/11/29 04:21:31;;;;;;;3.63;1.60;;;22.50;99.90;;;;;;4988608;28;20110;-53
2023/11/29 04:23:58;;;;;;;4.07;2.05;;;22.50;99.90;;;;;;4990358;28;20029;-54
2023/11/29 04:26:33;;;;;;;4.05;2.20;;;22.50;99.90;;;;;;4984830;28;20030;-54
2023/11/29 04:29:01;;;;;;;5.57;1.63;;;22.50;99.90;;;;;;4971773;28;20105;-53
2023/11/29 04:31:28;;;;;;;3.08;2.05;;;22.50;99.90;;;;;;4982873;28;20057;-54
2023/11/29 04:33:54;;;;;;;3.00;2.00;;;22.50;99.90;;;;;;4990637;28;20099;-54
2023/11/29 04:36:19;;;;;;;2.72;1.75;;;22.50;99.90;;;;;;4991040;28;20022;-54
2023/11/29 04:38:46;;;;;;;3.67;1.60;;;22.50;99.90;;;;;;4991704;28;20026;-54
2023/11/29 04:41:12;;;;;;;2.80;1.40;;;22.50;99.90;;;;;;4991832;28;20021;-54
2023/11/29 04:43:38;;;;;;;4.50;1.80;;;22.50;99.90;;;;;;4992004;28;20499;-54
2023/11/29 04:46:03;;;;;;;3.60;1.77;;;22.50;99.90;;;;;;4991695;28;20035;-53
2023/11/29 04:48:30;;;;;;;2.85;1.50;;;22.50;99.90;;;;;;4991854;28;20027;-54
2023/11/29 04:50:56;;;;;;;7.38;2.10;;;22.40;99.90;;;;;;4992374;28;20022;-53
2023/11/29 04:53:23;;;;;;;3.78;1.70;;;22.40;99.90;;;;;;4995289;28;20528;-53
2023/11/29 04:55:49;;;;;;;3.90;1.60;;;22.40;99.90;;;;;;4994998;28;20022;-54
2023/11/29 04:58:15;;;;;;;6.07;1.60;;;22.40;99.90;;;;;;5010279;28;20118;-53
2023/11/29 05:00:40;;;;;;;3.22;1.83;;;22.40;99.90;;;;;;4995413;28;20042;-53
2023/11/29 05:03:06;;;;;;;4.30;2.13;;;22.40;99.90;;;;;;4995157;28;20031;-54
2023/11/29 05:05:32;;;;;;;3.03;1.20;;;22.40;99.90;;;;;;4994829;28;20038;-53
2023/11/29 05:07:58;;;;;;;5.63;1.90;;;22.40;99.90;;;;;;4994841;28;20046;-53
2023/11/29 05:10:24;;;;;;;4.38;1.63;;;22.40;99.90;;;;;;4994846;28;20058;-53
2023/11/29 05:12:49;;;;;;;4.97;1.85;;;22.40;99.90;;;;;;4994754;28;20105;-53
2023/11/29 05:15:15;;;;;;;2.30;1.35;;;22.40;99.90;;;;;;4994797;28;20041;-53
2023/11/29 05:17:41;;;;;;;4.43;1.38;;;22.40;99.90;;;;;;4994816;28;20036;-54
2023/11/29 05:20:09;;;;;;;3.53;1.70;;;22.40;99.90;;;;;;4994838;28;20479;-54
2023/11/29 05:22:35;;;;;;;3.05;1.15;;;22.40;99.90;;;;;;4994979;28;20058;-53
2023/11/29 05:25:01;;;;;;;2.97;1.42;;;22.40;99.90;;;;;;4994396;28;20067;-54
2023/11/29 05:27:27;;;;;;;3.80;1.77;;;22.40;99.90;;;;;;4994683;28;20027;-53
2023/11/29 05:29:52;;;;;;;2.55;1.30;;;22.40;99.90;;;;;;4994739;28;20025;-53
2023/11/29 05:32:18;;;;;;;4.07;1.48;;;22.40;99.90;;;;;;4994401;28;20027;-53
2023/11/29 05:34:44;;;;;;;3.65;1.30;;;22.40;99.90;;;;;;4994536;28;20034;-53
2023/11/29 05:37:10;;;;;;;2.55;1.52;;;22.40;99.90;;;;;;4994613;28;20026;-54
2023/11/29 05:39:35;;;;;;;4.47;1.40;;;22.40;99.90;;;;;;4994724;28;20109;-54
2023/11/29 05:42:04;;;;;;;2.65;1.70;;;22.40;99.90;;;;;;4994260;28;20023;-54
2023/11/29 05:44:33;;;;;;;2.63;1.08;;;22.40;99.90;;;;;;5009334;28;20034;-54
2023/11/29 05:46:59;;;;;;;2.03;1.30;;;22.40;99.90;;;;;;4994361;28;20034;-54
2023/11/29 05:49:25;;;;;;;2.90;1.20;;;22.40;99.90;;;;;;4994150;28;20029;-54
2023/11/29 05:51:51;;;;;;;2.70;1.50;;;22.40;99.90;;;;;;4994319;28;20030;-54
2023/11/29 05:54:18;;;;;;;2.33;1.40;;;22.40;99.90;;;;;;4994084;28;20023;-54
2023/11/29 05:56:44;;;;;;;1.85;1.20;;;22.40;99.90;;;;;;4994293;28;20023;-53
2023/11/29 05:59:13;;;;;;;2.00;1.40;;;22.40;99.90;;;;;;4994042;28;20030;-54
2023/11/29 06:01:40;;;;;;;4.03;1.40;;;22.40;99.90;;;;;;4993483;28;20038;-54
2023/11/29 06:04:06;;;;;;;4.03;1.30;;;22.40;99.90;;;;;;4993246;28;20034;-54
2023/11/29 06:06:32;;;;;;;3.47;1.45;;;22.40;99.90;;;;;;4993802;28;20030;-54
2023/11/29 06:08:59;;;;;;;2.95;1.42;;;22.30;99.90;;;;;;4993857;28;20033;-54
2023/11/29 06:11:28;;;;;;;1.80;1.30;;;22.30;99.90;;;;;;4991954;28;20026;-54
2023/11/29 06:13:54;;;;;;;2.47;1.30;;;22.40;99.90;;;;;;4993748;28;20066;-54
2023/11/29 06:16:20;;;;;;;3.50;1.45;;;22.40;99.90;;;;;;4993508;28;20458;-54
2023/11/29 06:18:46;;;;;;;2.55;1.20;;;22.40;99.90;;;;;;4992662;28;20018;-54
2023/11/29 06:21:11;;;;;;;3.55;1.70;;;22.30;99.90;;;;;;4993564;28;20026;-54
2023/11/29 06:23:37;;;;;;;3.25;1.23;;;22.30;99.90;;;;;;4993993;28;20097;-55
2023/11/29 06:26:07;;;;;;;3.85;1.17;;;22.30;99.90;;;;;;4992119;28;20042;-54
2023/11/29 06:28:35;;;;;;;3.28;1.10;;;22.30;99.90;;;;;;4989729;28;20082;-53
2023/11/29 06:31:03;;;;;;;3.08;1.42;;;22.30;99.90;;;;;;4993648;28;20057;-54
2023/11/29 06:33:30;;;;;;;5.38;1.33;;;22.30;99.90;;;;;;4993351;28;20050;-54
2023/11/29 06:35:58;;;;;;;2.00;1.27;;;22.30;99.90;;;;;;4993471;28;20100;-54
2023/11/29 06:38:26;;;;;;;4.10;1.25;;;22.30;99.90;;;;;;4993327;28;20046;-54
2023/11/29 06:40:52;;;;;;;2.28;1.00;;;22.30;99.90;;;;;;4993139;28;20054;-55
2023/11/29 06:43:18;;;;;;;2.55;1.02;;;22.30;99.90;;;;;;4992116;28;20068;-54
2023/11/29 06:45:46;;;;;;;1.85;1.27;;;22.30;99.90;;;;;;4993086;28;20030;-54
2023/11/29 06:48:12;;;;;;;;;;;22.30;99.90;;;;;;5008789;28;20091;-55
2023/11/29 06:50:38;;;;;;;2.90;1.23;;;22.30;99.90;;;;;;4993274;28;19997;-54
2023/11/29 06:53:04;;;;;;;2.60;1.08;;;22.30;99.90;;;;;;4993072;28;20497;-54
2023/11/29 06:55:32;;;;;;;3.58;1.00;;;22.30;99.90;;;;;;4993149;28;20048;-55
2023/11/29 06:57:58;;;;;;;1.23;0.98;;;22.30;99.90;;;;;;4993072;28;20434;-55
2023/11/29 07:00:25;;;;;;;3.15;1.92;;;22.30;99.90;;;;;;4992914;28;20093;-55
2023/11/29 07:02:51;;;;;;;1.33;1.00;;;22.30;99.90;;;;;;4992665;28;20104;-55
2023/11/29 07:05:17;;;;;;;1.55;1.13;;;22.30;99.90;;;;;;4992711;28;20066;-56
2023/11/29 07:07:46;;;;;;;3.30;1.20;;;22.30;99.90;;;;;;4992637;28;20031;-55
2023/11/29 07:10:13;;;;;;;3.13;1.27;;;22.30;99.90;;;;;;4992854;28;20054;-55
2023/11/29 07:12:38;;;;;;;3.17;1.20;;;22.30;99.90;;;;;;4992788;28;20034;-55
2023/11/29 07:15:05;;;;;;;2.65;1.00;;;22.30;99.90;;;;;;4992819;28;20023;-55
2023/11/29 07:17:31;;;;;;;2.80;0.98;;;22.30;99.90;;;;;;4992806;28;20070;-55
2023/11/29 07:19:56;;;;;;;2.42;1.30;;;22.20;99.90;;;;;;4992473;28;20054;-55
2023/11/29 07:22:25;;;;;;;4.32;1.17;;;22.30;99.90;;;;;;4992808;28;20497;-55
2023/11/29 07:24:52;;;;;;;1.80;1.10;;;22.30;99.90;;;;;;4992418;28;20023;-54
2023/11/29 07:27:19;;;;;;;1.52;0.80;;;22.30;99.90;;;;;;4992441;28;20014;-54
2023/11/29 07:29:45;;;;;;;2.20;1.30;;;22.30;99.90;;;;;;4992532;28;20470;-54
2023/11/29 07:32:12;;;;;;;3.17;1.20;;;22.30;99.90;;;;;;4992539;28;20030;-54
2023/11/29 07:34:38;;;;;;;3.15;1.27;;;22.30;99.90;;;;;;4992700;28;20010;-53
2023/11/29 07:37:04;;;;;;;1.85;0.90;;;22.30;99.90;;;;;;5007159;28;20045;-54
2023/11/29 07:39:30;;;;;;;3.10;1.02;;;22.30;99.90;;;;;;4992455;28;20022;-53
2023/11/29 07:41:56;;;;;;;2.53;1.40;;;22.30;99.90;;;;;;4992303;28;20378;-54
2023/11/29 07:44:23;;;;;;;2.83;1.67;;;22.30;99.90;;;;;;4992406;28;20022;-54
2023/11/29 07:46:50;;;;;;;2.88;1.17;;;22.30;99.90;;;;;;4992625;28;20121;-54
2023/11/29 07:49:16;;;;;;;1.80;0.93;;;22.40;99.90;;;;;;4992018;28;20026;-54
2023/11/29 07:51:45;;;;;;;2.00;1.20;;;22.40;99.90;;;;;;4992131;28;20033;-55
2023/11/29 07:54:12;;;;;;;4.00;0.88;;;22.40;99.90;;;;;;4992159;28;20018;-54
2023/11/29 07:56:39;;;;;;;1.40;1.08;;;22.40;99.90;;;;;;4992635;28;20488;-54
2023/11/29 07:59:05;;;;;;;3.25;1.20;;;22.50;99.90;;;;;;4992257;28;20019;-54
2023/11/29 08:01:31;;;;;;;1.92;1.38;;;22.40;99.90;;;;;;4991973;28;20069;-53
2023/11/29 08:03:57;;;;;;;1.10;0.85;;;22.50;99.90;;;;;;4992172;28;20022;-54
2023/11/29 08:06:23;;;;;;;2.08;1.17;;;22.50;99.90;;;;;;4991872;28;20121;-54
2023/11/29 08:08:49;;;;;;;3.25;1.63;;;22.50;99.90;;;;;;4992002;28;20080;-54
2023/11/29 08:11:15;;;;;;;1.37;1.20;;;22.50;99.90;;;;;;4991925;28;20404;-54
2023/11/29 08:13:41;;;;;;;2.00;1.15;;;22.50;99.90;;;;;;4992051;28;20264;-54
2023/11/29 08:16:07;;;;;;;1.60;1.00;;;22.60;99.90;;;;;;4992100;28;20033;-55
2023/11/29 08:18:33;;;;;;;1.95;1.30;;;22.60;99.90;;;;;;4991946;28;20109;-56
2023/11/29 08:20:58;;;;;;;2.05;1.50;;;22.60;99.90;;;;;;4992013;28;20494;-56
2023/11/29 08:23:24;;;;;;;3.13;1.10;;;22.60;99.90;;;;;;4991801;28;20030;-56
2023/11/29 08:25:50;;;;;;;2.85;1.50;;;22.70;99.90;;;;;;4992684;28;20062;-54
2023/11/29 08:28:16;;;;;;;1.92;1.20;;;22.70;99.90;;;;;;4995620;28;20498;-54
2023/11/29 08:30:42;;;;;;;3.05;1.10;;;22.70;99.90;;;;;;4995560;28;20021;-53
2023/11/29 08:33:08;;;;;;;10.68;1.20;;;22.70;99.90;;;;;;4995871;28;20094;-54
2023/11/29 08:35:36;;;;;;;3.20;1.00;;;22.70;99.90;;;;;;4995485;28;20118;-55
2023/11/29 08:38:01;;;;;;;4.55;1.80;;;22.70;99.90;;;;;;4995449;28;20021;-55
2023/11/29 08:40:27;;;;;;;6.53;1.30;;;22.80;99.90;;;;;;4995207;28;20026;-54
2023/11/29 08:42:53;;;;;;;2.92;1.35;;;22.80;99.90;;;;;;4995391;28;20045;-54
2023/11/29 08:45:19;;;;;;;3.70;1.65;;;22.80;99.90;;;;;;4995202;28;20018;-54
2023/11/29 08:47:45;;;;;;;4.65;1.58;;;22.90;99.90;;;;;;4995407;28;20073;-54
2023/11/29 08:50:11;;;;;;;4.80;1.83;;;22.90;99.90;;;;;;4995415;28;20101;-54
2023/11/29 08:52:37;;;;;;;2.83;1.77;;;22.90;99.90;;;;;;4995354;28;20110;-54
2023/11/29 08:55:05;;;;;;;4.68;1.65;;;22.90;99.90;;;;;;4995228;28;20474;-54
2023/11/29 08:57:31;;;;;;;4.47;1.67;;;22.90;99.90;;;;;;4995019;28;20076;-54
2023/11/29 08:59:57;;;;;;;2.30;1.38;;;23.00;99.90;;;;;;4995214;28;20050;-54
2023/11/29 09:02:24;;;;;;;3.65;1.52;;;23.00;99.90;;;;;;4994953;28;20104;-54
2023/11/29 09:04:50;;;;;;;3.63;1.70;;;23.00;99.90;;;;;;4995001;28;20031;-54
2023/11/29 09:07:17;;;;;;;3.15;1.65;;;23.10;99.90;;;;;;4995085;28;20030;-54
2023/11/29 09:09:47;;;;;;;5.70;1.38;;;23.10;99.90;;;;;;4994848;28;20478;-54
2023/11/29 09:12:15;;;;;;;1.98;1.10;;;23.10;99.90;;;;;;4994963;28;20514;-54
2023/11/29 09:14:41;;;;;;;6.47;1.40;;;23.10;99.90;;;;;;4994730;28;20475;-54
2023/11/29 09:17:07;;;;;;;3.25;1.40;;;23.10;99.90;;;;;;4994000;28;20121;-54
2023/11/29 09:19:33;;;;;;;5.93;1.50;;;23.20;99.90;;;;;;4994789;28;20054;-54
2023/11/29 09:22:00;;;;;;;4.13;1.58;;;23.20;99.90;;;;;;4994909;28;20019;-55
2023/11/29 09:24:26;;;;;;;5.82;1.50;;;23.20;99.90;;;;;;4994538;28;20050;-54
2023/11/29 09:26:54;;;;;;;3.10;1.33;;;23.30;99.90;;;;;;4994649;28;20345;-54
2023/11/29 09:29:20;;;;;;;;;;;23.30;99.90;;;;;;4995012;28;20026;-54
2023/11/29 09:31:46;;;;;;;4.65;1.55;;;23.30;99.90;;;;;;4994385;28;19912;-54
2023/11/29 09:34:12;;;;;;;2.97;1.70;;;23.30;99.90;;;;;;4994478;28;20022;-54
2023/11/29 09:36:37;;;;;;;4.13;1.60;;;23.40;99.90;;;;;;4994420;28;20038;-55
2023/11/29 09:39:12;;;;;;;7.82;2.67;;;23.40;99.90;;;;;;4993351;28;20030;-54
2023/11/29 09:41:38;;;;;;;3.17;1.67;;;23.40;99.90;;;;;;4994613;28;20494;-54
2023/11/29 09:44:05;;;;;;;2.65;1.50;;;23.40;99.90;;;;;;4992891;28;20027;-54
2023/11/29 09:46:31;;;;;;;6.18;2.22;;;23.50;99.90;;;;;;4994168;28;20475;-54
2023/11/29 09:48:58;;;;;;;3.78;1.50;;;23.50;99.90;;;;;;4994124;28;20054;-54
2023/11/29 09:51:25;;;;;;;7.07;2.13;;;23.50;99.90;;;;;;4994279;28;20037;-54
2023/11/29 09:53:50;;;;;;;3.20;1.77;;;23.60;99.90;;;;;;4994105;28;20156;-55
2023/11/29 09:56:18;;;;;;;2.05;1.42;;;23.60;99.90;;;;;;4994260;28;20054;-54
2023/11/29 09:58:44;;;;;;;2.40;1.80;;;23.70;99.90;;;;;;4994154;28;20028;-53
2023/11/29 10:01:10;;;;;;;3.90;1.60;;;23.70;99.90;;;;;;4992576;28;20125;-53
2023/11/29 10:03:37;;;;;;;4.25;1.70;;;23.80;99.90;;;;;;4994291;28;20030;-53
2023/11/29 10:06:04;;;;;;;5.18;1.98;;;23.80;99.90;;;;;;4993794;28;20045;-53
2023/11/29 10:08:30;;;;;;;5.82;1.95;;;23.80;99.90;;;;;;4993944;28;20022;-53
2023/11/29 10:10:56;;;;;;;6.88;2.20;;;23.90;99.90;;;;;;4993694;28;20109;-53
2023/11/29 10:13:22;;;;;;;3.53;1.90;;;23.90;99.90;;;;;;4993618;28;20023;-53
2023/11/29 10:15:53;;;;;;;3.15;1.98;;;23.90;99.90;;;;;;4993756;28;20042;-54
2023/11/29 10:18:19;;;;;;;7.28;1.90;;;24.00;99.90;;;;;;4993540;28;20086;-53
2023/11/29 10:20:49;;;;;;;5.13;2.38;;;24.10;99.90;;;;;;4993848;28;20212;-54
2023/11/29 10:23:15;;;;;;;5.60;2.55;;;24.10;99.90;;;;;;4993516;28;20018;-54
2023/11/29 10:25:44;;;;;;;6.15;2.50;;;24.20;99.90;;;;;;4993593;28;20105;-54
2023/11/29 10:28:10;;;;;;;4.97;2.17;;;24.20;99.90;;;;;;4993653;28;20046;-54
2023/11/29 10:30:35;;;;;;;3.63;2.10;;;24.30;99.90;;;;;;4993570;28;20073;-55
2023/11/29 10:33:03;;;;;;;4.00;2.00;;;24.30;99.90;;;;;;4993409;28;20113;-54
2023/11/29 10:35:35;;;;;;;4.10;2.05;;;24.30;99.90;;;;;;4993307;28;20098;-54
2023/11/29 10:38:06;;;;;;;4.95;2.40;;;24.30;99.90;;;;;;4993332;28;20030;-54
2023/11/29 10:40:32;;;;;;;5.47;2.30;;;24.40;99.90;;;;;;4993250;28;20065;-54
2023/11/29 10:43:05;;;;;;;6.32;2.63;;;24.50;99.90;;;;;;4993342;28;20054;-53
2023/11/29 10:45:34;;;;;;;2.72;2.28;;;24.50;99.90;;;;;;4993098;28;20376;-53
2023/11/29 10:48:05;;;;;;;3.22;2.10;;;24.50;99.90;;;;;;4993275;28;20483;-54
2023/11/29 10:50:32;;;;;;;3.67;1.88;;;24.50;99.90;;;;;;4991590;28;20026;-54
2023/11/29 10:52:58;;;;;;;6.13;2.58;;;24.60;99.90;;;;;;4993174;28;20029;-54
2023/11/29 10:55:24;;;;;;;4.80;2.58;;;24.60;99.90;;;;;;4992996;28;20034;-53
2023/11/29 10:58:02;;;;;;;4.57;1.87;;;24.60;99.90;;;;;;4993066;28;20105;-54
2023/11/29 11:00:29;;;;;;;5.68;2.20;;;24.70;99.90;;;;;;4992997;28;20416;-54
2023/11/29 11:02:55;;;;;;;5.88;2.58;;;24.70;99.90;;;;;;4992644;28;20076;-54
2023/11/29 11:05:26;;;;;;;3.63;2.03;;;24.70;99.90;;;;;;4992694;28;20041;-54
2023/11/29 11:07:53;;;;;;;8.77;2.83;;;24.70;99.90;;;;;;4992790;28;20022;-54
2023/11/29 11:10:26;;;;;;;5.13;2.53;;;24.80;99.90;;;;;;4992851;28;20046;-54
2023/11/29 11:12:55;;;;;;;3.58;2.78;;;24.80;99.90;;;;;;4991468;28;20029;-55
2023/11/29 11:15:24;;;;;;;3.35;2.05;;;24.80;99.90;;;;;;4992610;28;20045;-54
2023/11/29 11:18:02;;;;;;;7.40;2.22;;;24.90;99.90;;;;;;4992426;28;20015;-54
2023/11/29 11:20:52;;;;;;;3.47;2.40;;;24.90;99.90;;;;;;5007617;28;20026;-54
2023/11/29 11:23:23;;;;;;;5.15;2.33;;;24.90;99.90;;;;;;4979434;28;20070;-53
2023/11/29 11:25:53;;;;;;;3.80;2.40;;;25.00;99.90;;;;;;4992394;28;20041;-53
2023/11/29 11:28:41;;;;;;;3.67;2.50;;;25.00;99.90;;;;;;4984814;28;20030;-54
2023/11/29 11:31:08;;;;;;;4.43;2.60;;;25.00;99.90;;;;;;4990955;28;20025;-55
2023/11/29 11:33:52;;;;;;;4.03;2.22;;;25.00;99.90;;;;;;4990728;28;20102;-54
2023/11/29 11:36:22;;;;;;;5.72;2.67;;;25.00;99.90;;;;;;4992357;28;20015;-54
2023/11/29 11:38:49;;;;;;;3.35;2.17;;;25.00;99.90;;;;;;4992005;28;20027;-54
2023/11/29 11:41:15;;;;;;;6.38;2.78;;;25.10;99.90;;;;;;4992227;28;20030;-54
2023/11/29 11:43:42;;;;;;;7.03;3.10;;;25.10;99.90;;;;;;4986240;28;20043;-55
2023/11/29 11:46:07;;;;;;;7.72;2.35;;;25.10;99.90;;;;;;4988653;28;20042;-55
2023/11/29 11:48:33;;;;;;;4.32;2.60;;;25.20;99.90;;;;;;4981154;28;20053;-55
2023/11/29 11:51:02;;;;;;;6.07;2.33;;;25.20;99.90;;;;;;5000286;28;20030;-54
2023/11/29 11:53:39;;;;;;;4.43;2.47;;;25.20;99.90;;;;;;4983509;28;20019;-55
2023/11/29 11:56:19;;;;;;;5.60;2.22;;;25.30;99.90;;;;;;4984258;28;20019;-54
2023/11/29 11:58:45;;;;;;;7.57;2.83;;;25.30;99.90;;;;;;4974054;28;20050;-56
2023/11/29 12:01:11;;;;;;;8.05;2.85;;;25.30;99.90;;;;;;4982804;28;20034;-55
2023/11/29 12:03:38;;;;;;;5.47;2.60;;;25.40;99.90;;;;;;4981641;28;20073;-56
2023/11/29 12:06:04;;;;;;;4.88;2.47;;;25.40;99.90;;;;;;4983460;28;20383;-55
2023/11/29 12:08:34;;;;;;;4.82;2.50;;;25.40;99.90;;;;;;4979397;28;20025;-55
2023/11/29 12:11:00;;;;;;;5.50;3.10;;;25.40;99.90;;;;;;4990465;28;20533;-55
2023/11/29 12:13:26;;;;;;;8.17;2.93;;;25.50;99.90;;;;;;4976269;28;20113;-54
2023/11/29 12:15:52;;;;;;;11.38;3.58;;;25.50;99.90;;;;;;4989825;28;20105;-54
2023/11/29 12:18:18;;;;;;;10.57;2.50;;;25.50;99.90;;;;;;4995530;28;20378;-56
2023/11/29 12:20:44;;;;;;;7.65;2.67;;;25.50;99.90;;;;;;4995831;28;20505;-55
2023/11/29 12:23:12;;;;;;;5.88;2.05;;;25.50;99.90;;;;;;4995819;28;20101;-55
2023/11/29 12:25:40;;;;;;;7.13;2.60;;;25.50;99.90;;;;;;4995840;28;20026;-54
2023/11/29 12:28:06;;;;;;;7.45;2.90;;;25.60;99.90;;;;;;5006715;28;20030;-54
2023/11/29 12:30:32;;;;;;;7.88;2.83;;;25.60;99.90;;;;;;4994702;28;20033;-54
2023/11/29 12:32:58;;;;;;;8.00;2.90;;;25.60;99.90;;;;;;4993168;28;20502;-53
2023/11/29 12:35:25;;;;;;;6.47;2.42;;;25.60;99.90;;;;;;4977828;28;20035;-53
2023/11/29 12:37:54;;;;;;;8.32;2.90;;;25.70;99.90;;;;;;4983985;28;20028;-54
2023/11/29 12:40:20;;;;;;;8.65;2.92;;;25.70;99.90;;;;;;4990493;28;20026;-55
2023/11/29 12:42:49;;;;;;;9.32;3.17;;;25.70;99.90;;;;;;4993584;28;20026;-55
2023/11/29 12:45:15;;;;;;;10.60;3.05;;;25.70;99.90;;;;;;4995176;28;20030;-55